Flight Track Log - Related Links

Times and Time Zones

All times are in EDT time to prevent confusion due to time zone crossing. See the SKW5187 flight status page for this flight to view local times or setup timezone preferences in your user account.

Time Position Orientation Groundspeed Altitude Reporting Facility
EDT Latitude Longitude Course Direction KTS MPH feet Rate Location/Type
Thu 05:23:41 PM 32.9864 -79.9606 309° West 290 334 5,100  Level Jacksonville Center
Thu 05:24:00 PM 33.2972 -80.2319 337° Northwest  Level FlightAware Approximate
Thu 05:24:41 PM 33.0461 -80.0156 322° Northwest 250 288 7,400  Level Jacksonville Center
Thu 05:25:00 PM 33.3789 -80.3183 309° West  Level FlightAware Approximate
Thu 05:25:41 PM 33.1078 -80.0681 325° Northwest 260 299 9,800  Level Jacksonville Center
Thu 05:26:00 PM 33.4542 -80.4177 314° West  Level FlightAware Approximate
Thu 05:26:41 PM 33.1781 -80.1253 326° Northwest 273 314 11,000  Level Jacksonville Center
Thu 05:27:00 PM 33.5183 -80.5275 309° West  Level FlightAware Approximate
Thu 05:27:41 PM 33.2394 -80.1756 326° Northwest 307 353 12,600  Level Jacksonville Center
Thu 05:28:00 PM 33.5884 -80.6326 309° West  Level FlightAware Approximate
Thu 05:28:41 PM 33.3139 -80.2381 325° Northwest 312 359 14,100  Level Jacksonville Center
Thu 05:29:41 PM 33.3781 -80.3158 315° West 322 371 15,700 1,550 Climbing Jacksonville Center
Thu 05:30:41 PM 33.4383 -80.4011 310° West 329 379 17,200 1,200 Climbing Jacksonville Center
Thu 05:31:41 PM 33.4983 -80.4864 310° West 335 386 18,100 1,100 Climbing Jacksonville Center
Thu 05:32:41 PM 33.5586 -80.5797 308° West 349 402 19,400 1,200 Climbing Jacksonville Center
Thu 05:33:41 PM 33.6167 -80.6728 307° West 349 402 20,500 1,100 Climbing Jacksonville Center
Thu 05:34:41 PM 33.6767 -80.7711 306° West 355 409 21,600 1,200 Climbing Jacksonville Center
Thu 05:35:41 PM 33.7386 -80.8619 309° West 355 409 22,900 1,100 Climbing Jacksonville Center
Thu 05:36:41 PM 33.7967 -80.9583 306° West 355 409 23,800 850 Climbing Jacksonville Center
Thu 05:37:41 PM 33.8606 -81.0494 310° West 355 409 24,600 850 Climbing Jacksonville Center
Thu 05:38:41 PM 33.9572 -81.0925 340° North 350 403 25,500 850 Climbing Jacksonville Center
Thu 05:39:41 PM 34.0600 -81.1353 341° North 360 414 26,300 740 Climbing Jacksonville Center
Thu 05:41:15 PM 34.2228 -81.2050 340° North 384 442 27,400 623 Climbing Atlanta Center
Thu 05:42:15 PM 34.3175 -81.2394 343° North 394 453 27,900 300 Climbing Atlanta Center
Thu 05:43:15 PM 34.4333 -81.2911 340° North 394 453 28,000 50 Climbing Atlanta Center
Thu 05:44:15 PM 34.5325 -81.3283 343° North 400 460 28,000  Level Atlanta Center
Thu 05:45:15 PM 34.6525 -81.3825 340° North 411 473 28,000 150 Level Atlanta Center
Thu 05:46:15 PM 34.7661 -81.4319 340° North 417 480 28,300 400 Climbing Atlanta Center
Thu 05:47:15 PM 34.8819 -81.4764 343° North 427 491 28,800 500 Climbing Atlanta Center
Thu 05:48:15 PM 34.9936 -81.5236 341° North 432 497 29,300 550 Climbing Atlanta Center
Thu 05:49:15 PM 35.1050 -81.5736 340° North 427 491 29,900 550 Climbing Atlanta Center
Thu 05:50:15 PM 35.2144 -81.6161 342° North 427 491 30,400 500 Climbing Atlanta Center
Thu 05:51:15 PM 35.3258 -81.6611 342° North 427 491 30,900 500 Climbing Atlanta Center
Thu 05:52:15 PM 35.4353 -81.7064 341° North 417 480 31,400 500 Climbing Atlanta Center
Thu 05:53:15 PM 35.5447 -81.7519 341° North 417 480 31,900 300 Climbing Atlanta Center
Thu 05:54:15 PM 35.6458 -81.8128 334° Northwest 407 468 32,000 50 Climbing Atlanta Center
Thu 05:55:15 PM 35.7475 -81.8894 329° Northwest 413 475 32,000  Level Atlanta Center
Thu 05:56:15 PM 35.8447 -81.9689 326° Northwest 418 481 32,000  Level Atlanta Center
Thu 05:57:15 PM 35.9336 -82.0383 328° Northwest 423 487 32,000  Level Atlanta Center
Thu 05:58:15 PM 36.0328 -82.1156 328° Northwest 423 487 32,000  Level Atlanta Center
Thu 05:59:15 PM 36.1319 -82.1981 326° Northwest 423 487 32,000  Level Atlanta Center
Thu 06:00:15 PM 36.2375 -82.2831 327° Northwest 418 481 32,000  Level Atlanta Center
Thu 06:01:15 PM 36.3389 -82.3633 327° Northwest 423 487 32,000  Level Atlanta Center
Thu 06:03:22 PM 36.5108 -82.5589 318° Northwest 422 486 32,000  Level Indianapolis Center
Thu 06:04:24 PM 36.5978 -82.6872 310° West 420 483 32,000  Level Indianapolis Center
Thu 06:05:26 PM 36.6733 -82.7967 311° West 418 481 32,000  Level Indianapolis Center
Thu 06:06:28 PM 36.7492 -82.9056 311° West 415 478 32,000  Level Indianapolis Center
Thu 06:07:30 PM 36.8406 -82.9997 321° Northwest 424 488 32,000  Level Indianapolis Center
Thu 06:08:32 PM 36.9350 -83.0894 323° Northwest 420 483 32,000  Level Indianapolis Center
Thu 06:09:33 PM 37.0272 -83.1772 323° Northwest 417 480 32,000  Level Indianapolis Center
Thu 06:10:35 PM 37.1217 -83.2606 325° Northwest 414 476 32,000  Level Indianapolis Center
Thu 06:11:37 PM 37.2178 -83.3417 326° Northwest 414 476 32,000  Level Indianapolis Center
Thu 06:12:39 PM 37.3144 -83.4211 327° Northwest 414 476 32,000  Level Indianapolis Center
Thu 06:13:41 PM 37.4311 -83.5117 328° Northwest 415 478 32,000  Level Indianapolis Center
Thu 06:14:43 PM 37.5319 -83.5897 328° Northwest 421 484 32,000  Level Indianapolis Center
Thu 06:15:44 PM 37.6375 -83.6583 333° Northwest 424 488 32,000  Level Indianapolis Center
Thu 06:16:46 PM 37.7422 -83.7286 332° Northwest 424 488 32,000  Level Indianapolis Center
Thu 06:17:48 PM 37.8478 -83.7986 332° Northwest 424 488 32,000  Level Indianapolis Center
Thu 06:18:50 PM 37.9514 -83.8711 331° Northwest 424 488 32,000  Level Indianapolis Center
Thu 06:19:52 PM 38.0731 -83.9556 331° Northwest 424 488 32,000  Level Indianapolis Center
Thu 06:20:53 PM 38.1786 -84.0283 332° Northwest 426 490 32,000  Level Indianapolis Center
Thu 06:21:55 PM 38.2858 -84.1022 332° Northwest 432 497 32,000  Level Indianapolis Center
Thu 06:22:57 PM 38.3953 -84.1767 332° Northwest 440 506 32,000  Level Indianapolis Center
Thu 06:23:59 PM 38.5022 -84.2514 331° Northwest 440 506 32,000  Level Indianapolis Center
Thu 06:25:01 PM 38.6108 -84.3264 332° Northwest 440 506 32,000  Level Indianapolis Center
Thu 06:26:03 PM 38.7322 -84.4122 331° Northwest 440 506 32,000  Level Indianapolis Center
Thu 06:27:05 PM 38.8389 -84.4875 331° Northwest 440 506 32,000 -242 Level Indianapolis Center
Thu 06:28:07 PM 38.9475 -84.5617 332° Northwest 440 506 31,500 -585 Descending Indianapolis Center
Thu 06:29:08 PM 39.0564 -84.6392 331° Northwest 442 509 30,800 -683 Descending Indianapolis Center
Thu 06:30:10 PM 39.1672 -84.7178 331° Northwest 451 519 30,100 -726 Descending Indianapolis Center
Thu 06:31:12 PM 39.2742 -84.7939 331° Northwest 444 511 29,300 -677 Descending Indianapolis Center
Thu 06:32:14 PM 39.3789 -84.8686 331° Northwest 436 502 28,700 -629 Descending Indianapolis Center
Thu 06:33:16 PM 39.4956 -84.9506 332° Northwest 430 495 28,000 -339 Descending Indianapolis Center
Thu 06:34:18 PM 39.5964 -85.0244 331° Northwest 425 489 28,000  Level Indianapolis Center
Thu 06:35:19 PM 39.6983 -85.0981 331° Northwest 424 488 28,000 -390 Level Indianapolis Center
Thu 06:36:21 PM 39.8200 -85.1850 331° Northwest 423 487 27,200 -871 Descending Indianapolis Center
Thu 06:37:23 PM 39.9206 -85.2583 331° Northwest 421 484 26,200 -571 Descending Indianapolis Center
Thu 06:38:27 PM 40.0203 -85.3317 331° Northwest 420 483 26,000 -97 Descending Indianapolis Center
Thu 06:39:27 PM 40.1178 -85.4011 331° Northwest 409 471 26,000  Level Indianapolis Center
Thu 06:40:29 PM 40.2125 -85.4728 330° Northwest 400 460 26,000 -293 Level Indianapolis Center
Thu 06:41:30 PM 40.3114 -85.5442 331° Northwest 401 461 25,400 -807 Descending Indianapolis Center
Thu 06:42:28 PM 40.4083 -85.6147 331° Northwest 405 466 24,400 -700 Descending Chicago Center
Thu 06:43:30 PM 40.5069 -85.6822 333° Northwest 404 465 24,000 -194 Descending Chicago Center
Thu 06:44:32 PM 40.6342 -85.7272 345° North 399 459 24,000  Level Chicago Center
Thu 06:45:35 PM 40.7278 -85.7639 343° North 398 458 24,000  Level Chicago Center
Thu 06:46:37 PM 40.8519 -85.8169 342° North 397 457 24,000  Level Chicago Center
Thu 06:47:39 PM 40.9025 -85.9294 301° West 366 421 24,000 -194 Level Chicago Center
Thu 06:48:41 PM 40.9428 -86.0508 294° West 361 415 23,600 -726 Descending Chicago Center
Thu 06:49:43 PM 40.9825 -86.1761 293° West 365 420 22,500 -774 Descending Chicago Center
Thu 06:50:45 PM 41.0219 -86.2975 293° West 362 417 22,000 -242 Descending Chicago Center
Thu 06:51:47 PM 41.0597 -86.4175 293° West 357 411 22,000 -144 Level Chicago Center
Thu 06:52:50 PM 41.0994 -86.5394 293° West 358 412 21,700 -1,152 Descending Chicago Center
Thu 06:53:52 PM 41.1539 -86.6892 296° West 377 434 19,600 -1,935 Descending Chicago Center
Thu 06:54:54 PM 41.2014 -86.8022 299° West 349 402 17,700 -1,887 Descending Chicago Center
Thu 06:55:56 PM 41.2481 -86.9097 300° West 314 361 15,700 -1,742 Descending Chicago Center
Thu 06:56:58 PM 41.2881 -87.0067 299° West 303 349 14,100 -1,500 Descending Chicago Center
Thu 06:58:00 PM 41.3322 -87.1122 299° West 308 354 12,600 -1,403 Descending Chicago Center
Thu 06:59:02 PM 41.3836 -87.2161 303° West 330 380 11,200 -774 Descending Chicago Center
Thu 07:00:04 PM 41.4594 -87.3056 319° Northwest 337 388 11,000 -97 Descending Chicago Center
Thu 07:01:06 PM 41.5319 -87.3853 321° Northwest 338 389 11,000  Level Chicago Center
Thu 07:02:09 PM 41.6167 -87.4608 326° Northwest 339 390 11,000 -96 Level Chicago Center
Thu 07:03:11 PM 41.6903 -87.5367 322° Northwest 337 388 10,800 -677 Descending Chicago Center
Thu 07:04:13 PM 41.7533 -87.6083 320° Northwest 278 320 9,600 -1,306 Descending Chicago Center
Thu 07:05:15 PM 41.8114 -87.6733 320° Northwest 277 319 8,100 -1,258 Descending Chicago Center
Thu 07:06:17 PM 41.8600 -87.7564 308° West 269 310 7,000 -532 Descending Chicago Center
Thu 07:07:19 PM 41.8831 -87.8411 290° West 250 288 7,000  Level Chicago Center
Thu 07:08:21 PM 41.8833 -87.9414 270° West 251 289 7,000 -192 Level Chicago Center
Thu 07:09:24 PM 41.8836 -88.0361 270° West 252 290 6,600 -816 Descending Chicago Center
Thu 07:10:26 PM 41.8836 -88.1353 270° West 252 290 5,300 -774 Descending Chicago Center
Thu 07:11:28 PM 41.8836 -88.2261 270° West 246 283 5,000 -145 Descending Chicago Center
Thu 07:12:30 PM 41.8839 -88.3244 270° West 245 282 5,000  Level Chicago Center
Thu 07:13:32 PM 41.8847 -88.4172 271° West 246 283 5,000  Level Chicago Center
Thu 07:14:34 PM 41.9467 -88.4203 358° North 236 272 5,000  Level Chicago Center
Thu 07:15:37 PM 41.9650 -88.3367 74° East 247 284 5,000  Level Chicago Center
Thu 07:16:39 PM 41.9633 -88.2456 91° East 233 268 5,000 -339 Level Chicago Center
Thu 07:17:41 PM 41.9644 -88.1706 89° East 206 237 4,300 -774 Descending Chicago Center
Thu 07:18:43 PM 41.9633 -88.1117 91° East 168 193 3,400 -823 Descending Chicago Center
Thu 07:19:45 PM 41.9644 -88.0539 88° East 148 170 2,600 -726 Descending Chicago Center
Thu 07:20:47 PM 41.9647 -88.0053 90° East 133 153 1,900 -726 Descending Chicago Center
Thu 07:21:49 PM 41.9642 -87.9539 91° East 129 148 1,100 -484 Descending Chicago Center
Thu 07:22:51 PM 41.9650 -87.9144 88° East 129 148 900 -194 Descending Chicago Center

Login

Don't have an account? Register now (free) for customized features, flight alerts, and more!